createdAt,value
2023-07-09T00:02:17.613Z,14.99
2023-07-09T00:05:07.039Z,14.97
2023-07-09T00:07:55.831Z,14.94
2023-07-09T00:10:44.422Z,14.92
2023-07-09T00:13:33.118Z,14.88
2023-07-09T00:16:25.465Z,14.85
2023-07-09T00:19:17.865Z,14.80
2023-07-09T00:22:17.511Z,14.75
2023-07-09T00:25:06.488Z,14.66
2023-07-09T00:27:55.435Z,14.55
2023-07-09T00:30:46.224Z,14.44
2023-07-09T00:33:34.870Z,14.38
2023-07-09T00:36:29.816Z,14.38
2023-07-09T00:39:20.966Z,14.37
2023-07-09T00:42:18.761Z,14.37
2023-07-09T00:45:18.960Z,14.32
2023-07-09T00:48:14.124Z,14.26
2023-07-09T00:51:03.006Z,14.15
2023-07-09T00:53:55.104Z,14.09
2023-07-09T00:56:46.627Z,14.02
2023-07-09T00:59:35.681Z,14.03
2023-07-09T01:02:25.428Z,14.04
2023-07-09T01:05:17.854Z,14.02
2023-07-09T01:08:10.424Z,14.02
2023-07-09T01:11:00.187Z,13.99
2023-07-09T01:14:02.334Z,13.96
2023-07-09T01:16:58.598Z,13.92
2023-07-09T01:19:51.412Z,13.89
2023-07-09T01:22:39.933Z,13.86
2023-07-09T01:25:31.773Z,13.85
2023-07-09T01:28:21.777Z,13.84
2023-07-09T01:31:16.106Z,13.82
2023-07-09T01:34:04.778Z,13.79
2023-07-09T01:36:54.639Z,13.77
2023-07-09T01:39:43.588Z,13.73
2023-07-09T01:42:33.306Z,13.67
2023-07-09T01:45:22.488Z,13.64
2023-07-09T01:48:15.460Z,13.62
2023-07-09T01:51:04.941Z,13.59
2023-07-09T01:53:54.897Z,13.57
2023-07-09T01:56:43.518Z,13.54
2023-07-09T01:59:34.062Z,13.50
2023-07-09T02:02:23.403Z,13.46
2023-07-09T02:05:14.322Z,13.41
2023-07-09T02:08:04.263Z,13.37
2023-07-09T02:10:53.265Z,13.32
2023-07-09T02:13:41.860Z,13.30
2023-07-09T02:16:30.470Z,13.29
2023-07-09T02:19:19.201Z,13.28
2023-07-09T02:22:08.970Z,13.27
2023-07-09T02:24:57.452Z,13.24
2023-07-09T02:27:46.112Z,13.21
2023-07-09T02:30:35.118Z,13.17
2023-07-09T02:33:24.736Z,13.13
2023-07-09T02:36:13.285Z,13.11
2023-07-09T02:39:01.849Z,13.05
2023-07-09T02:41:52.228Z,12.86
2023-07-09T02:44:42.398Z,12.82
2023-07-09T02:47:31.179Z,12.83
2023-07-09T02:50:21.043Z,12.81
2023-07-09T02:53:09.705Z,12.84
2023-07-09T02:55:58.558Z,12.85
2023-07-09T02:58:47.190Z,12.84
2023-07-09T03:01:36.925Z,12.90
2023-07-09T03:04:25.687Z,12.93
2023-07-09T03:07:14.285Z,13.00
2023-07-09T03:10:03.025Z,13.02
2023-07-09T03:12:51.658Z,13.07
2023-07-09T03:15:40.237Z,13.11
2023-07-09T03:18:28.736Z,13.12
2023-07-09T03:21:17.262Z,13.26
2023-07-09T03:24:06.467Z,13.65
2023-07-09T03:26:55.068Z,14.47
2023-07-09T03:29:43.569Z,15.52
2023-07-09T03:32:32.133Z,16.52
2023-07-09T03:35:20.643Z,17.26
2023-07-09T03:38:11.325Z,17.89
2023-07-09T03:40:59.885Z,18.62
2023-07-09T03:43:51.265Z,19.51
2023-07-09T03:46:39.791Z,20.57
2023-07-09T03:49:28.356Z,21.53
2023-07-09T03:52:17.454Z,22.30
2023-07-09T03:55:06.442Z,22.94
2023-07-09T03:57:56.266Z,23.55
2023-07-09T04:00:46.055Z,24.27
2023-07-09T04:03:34.557Z,25.07
2023-07-09T04:06:23.108Z,25.74
2023-07-09T04:09:11.802Z,26.28
2023-07-09T04:12:02.626Z,26.82
2023-07-09T04:14:51.170Z,27.32
2023-07-09T04:17:41.357Z,27.60
2023-07-09T04:20:29.854Z,27.55
2023-07-09T04:23:19.562Z,27.86
2023-07-09T04:26:13.668Z,28.14
2023-07-09T04:29:02.414Z,28.17
2023-07-09T04:31:51.029Z,27.98
2023-07-09T04:34:40.293Z,27.61
2023-07-09T04:37:29.361Z,26.99
2023-07-09T04:40:20.281Z,26.25
2023-07-09T04:43:09.167Z,25.48
2023-07-09T04:45:57.729Z,24.93
2023-07-09T04:48:46.379Z,24.48
2023-07-09T04:51:34.972Z,24.07
2023-07-09T04:54:24.565Z,23.76
2023-07-09T04:57:13.233Z,23.51
2023-07-09T05:00:02.292Z,23.37
2023-07-09T05:02:51.001Z,23.09
2023-07-09T05:05:47.329Z,22.88
2023-07-09T05:08:35.874Z,22.82
2023-07-09T05:11:24.366Z,22.63
2023-07-09T05:14:13.525Z,22.35
2023-07-09T05:17:03.172Z,22.25
2023-07-09T05:19:52.633Z,22.25
2023-07-09T05:22:41.600Z,22.20
2023-07-09T05:25:30.432Z,22.13
2023-07-09T05:28:19.099Z,22.12
2023-07-09T05:31:08.199Z,22.06
2023-07-09T05:33:56.763Z,22.14
2023-07-09T05:36:46.094Z,22.21
2023-07-09T05:39:35.429Z,22.40
2023-07-09T05:42:23.969Z,22.41
2023-07-09T05:45:12.568Z,22.50
2023-07-09T05:48:01.849Z,22.68
2023-07-09T05:50:55.450Z,22.75
2023-07-09T05:53:44.114Z,22.75
2023-07-09T05:56:32.772Z,22.88
2023-07-09T05:59:21.629Z,22.93
2023-07-09T06:02:14.760Z,23.07
2023-07-09T06:05:03.443Z,23.15
2023-07-09T06:07:52.000Z,23.18
2023-07-09T06:10:43.160Z,23.12
2023-07-09T06:13:32.178Z,23.18
2023-07-09T06:16:21.536Z,23.38
2023-07-09T06:19:10.777Z,23.50
2023-07-09T06:21:59.341Z,23.57
2023-07-09T06:24:48.070Z,23.64
2023-07-09T06:27:36.589Z,23.73
2023-07-09T06:30:25.121Z,24.03
2023-07-09T06:33:15.638Z,24.24
2023-07-09T06:36:05.965Z,24.28
2023-07-09T06:38:54.740Z,24.37
2023-07-09T06:41:43.236Z,24.48
2023-07-09T06:44:47.681Z,24.75
2023-07-09T06:47:36.214Z,24.95
2023-07-09T06:50:24.748Z,25.10
2023-07-09T06:53:13.684Z,25.23
2023-07-09T06:56:02.829Z,25.46
2023-07-09T06:58:51.769Z,25.75
2023-07-09T07:01:40.322Z,26.05
2023-07-09T07:04:28.911Z,26.38
2023-07-09T07:07:17.494Z,26.43
2023-07-09T07:10:06.550Z,26.37
2023-07-09T07:12:55.619Z,26.36
2023-07-09T07:15:50.805Z,26.28
2023-07-09T07:18:40.147Z,26.29
2023-07-09T07:21:28.656Z,26.36
2023-07-09T07:24:17.207Z,26.18
2023-07-09T07:27:05.990Z,26.27
2023-07-09T07:29:55.542Z,26.40
2023-07-09T07:32:50.036Z,26.53
2023-07-09T07:35:51.949Z,26.65
2023-07-09T07:38:47.569Z,26.80
2023-07-09T07:41:36.098Z,27.00
2023-07-09T07:44:24.653Z,27.10
2023-07-09T07:47:13.854Z,27.32
2023-07-09T07:50:02.349Z,27.37
2023-07-09T07:52:50.854Z,27.43
2023-07-09T07:55:39.371Z,27.52
2023-07-09T07:58:28.210Z,27.65
2023-07-09T08:01:16.735Z,27.72
2023-07-09T08:04:06.498Z,27.58
2023-07-09T08:06:55.542Z,27.44
2023-07-09T08:09:44.334Z,27.52
2023-07-09T08:12:33.633Z,27.55
2023-07-09T08:15:22.309Z,27.63
2023-07-09T08:18:10.891Z,27.69
2023-07-09T08:21:03.023Z,27.77
2023-07-09T08:23:51.572Z,27.90
2023-07-09T08:26:40.364Z,28.15
2023-07-09T08:29:28.980Z,28.25
2023-07-09T08:32:17.503Z,28.17
2023-07-09T08:35:33.709Z,28.14
2023-07-09T08:38:15.186Z,28.10
2023-07-09T08:41:34.999Z,28.16
2023-07-09T08:44:34.248Z,28.25
2023-07-09T08:47:28.989Z,28.44
2023-07-09T08:50:22.240Z,28.36
2023-07-09T08:53:20.799Z,28.33
2023-07-09T08:56:11.283Z,28.31
2023-07-09T08:59:02.952Z,28.35
2023-07-09T09:01:56.561Z,28.44
2023-07-09T09:04:46.124Z,28.48
2023-07-09T09:07:42.676Z,28.50
2023-07-09T09:10:41.762Z,28.52
2023-07-09T09:13:31.739Z,28.61
2023-07-09T09:16:33.818Z,28.64
2023-07-09T09:19:30.654Z,28.80
2023-07-09T09:22:23.779Z,28.94
2023-07-09T09:25:25.354Z,28.91
2023-07-09T09:28:15.235Z,28.77
2023-07-09T09:31:04.263Z,28.56
2023-07-09T09:33:53.846Z,28.53
2023-07-09T09:36:43.441Z,28.45
2023-07-09T09:39:31.993Z,28.44
2023-07-09T09:42:20.523Z,28.34
2023-07-09T09:45:16.443Z,28.49
2023-07-09T09:48:29.529Z,28.58
2023-07-09T09:51:19.358Z,28.55
2023-07-09T09:54:17.877Z,28.53
2023-07-09T09:57:20.076Z,28.56
2023-07-09T10:00:16.558Z,28.56
2023-07-09T10:03:07.939Z,28.55
2023-07-09T10:06:00.870Z,28.63
2023-07-09T10:09:17.451Z,28.53
2023-07-09T10:12:15.666Z,28.54
2023-07-09T10:15:25.609Z,28.60
2023-07-09T10:18:32.669Z,28.53
2023-07-09T10:21:44.674Z,28.51
2023-07-09T10:24:51.655Z,28.57
2023-07-09T10:28:05.802Z,28.79
2023-07-09T10:31:17.366Z,29.08
2023-07-09T10:34:16.404Z,29.06
2023-07-09T10:37:31.379Z,28.85
2023-07-09T10:40:32.904Z,28.85
2023-07-09T10:43:43.048Z,28.90
2023-07-09T10:46:36.113Z,29.03
2023-07-09T10:49:34.097Z,29.27
2023-07-09T10:52:35.391Z,29.44
2023-07-09T10:55:42.753Z,29.49
2023-07-09T10:58:44.711Z,29.65
2023-07-09T11:01:39.966Z,29.70
2023-07-09T11:04:35.602Z,29.73
2023-07-09T11:07:32.728Z,29.78
2023-07-09T11:10:28.699Z,29.80
2023-07-09T11:13:51.902Z,29.88
2023-07-09T11:16:44.124Z,29.84
2023-07-09T11:19:32.885Z,29.92
2023-07-09T11:22:22.572Z,30.09
2023-07-09T11:25:13.108Z,30.24
2023-07-09T11:28:07.097Z,30.24
2023-07-09T11:30:56.039Z,30.21
2023-07-09T11:33:50.451Z,30.38
2023-07-09T11:36:59.178Z,30.50
2023-07-09T11:39:49.936Z,30.63
2023-07-09T11:42:50.430Z,30.72
2023-07-09T11:45:39.033Z,30.87
2023-07-09T11:48:30.445Z,30.90
2023-07-09T11:51:24.126Z,31.08
2023-07-09T11:54:14.676Z,31.15
2023-07-09T11:57:04.321Z,31.18
2023-07-09T12:00:02.092Z,31.20
2023-07-09T12:03:01.493Z,31.12
2023-07-09T12:05:53.834Z,31.10
2023-07-09T12:08:44.115Z,31.22
2023-07-09T12:11:35.771Z,31.19
2023-07-09T12:14:25.445Z,31.18
2023-07-09T12:17:14.082Z,31.14
2023-07-09T12:20:02.977Z,31.16
2023-07-09T12:22:54.226Z,30.92
2023-07-09T12:25:49.307Z,30.65
2023-07-09T12:28:37.816Z,30.63
2023-07-09T12:31:31.764Z,30.54
2023-07-09T12:34:20.403Z,30.28
2023-07-09T12:37:19.372Z,30.16
2023-07-09T12:40:15.687Z,30.03
2023-07-09T12:43:05.401Z,30.05
2023-07-09T12:45:55.163Z,30.14
2023-07-09T12:48:44.557Z,30.06
2023-07-09T12:51:33.255Z,30.05
2023-07-09T12:54:22.418Z,30.12
2023-07-09T12:57:19.181Z,30.16
2023-07-09T13:00:16.198Z,30.12
2023-07-09T13:03:14.958Z,30.12
2023-07-09T13:06:07.105Z,30.29
2023-07-09T13:08:58.833Z,30.37
2023-07-09T13:11:47.873Z,30.52
2023-07-09T13:14:36.379Z,30.48
2023-07-09T13:17:30.532Z,30.49
2023-07-09T13:20:19.085Z,30.39
2023-07-09T13:23:22.378Z,30.28
2023-07-09T13:26:11.001Z,30.44
2023-07-09T13:28:59.508Z,30.50
2023-07-09T13:31:49.456Z,30.38
2023-07-09T13:34:40.248Z,30.38
2023-07-09T13:37:29.050Z,30.38
2023-07-09T13:40:17.657Z,30.30
2023-07-09T13:43:22.632Z,30.22
2023-07-09T13:46:11.754Z,30.40
2023-07-09T13:49:01.549Z,30.49
2023-07-09T13:51:53.265Z,30.48
2023-07-09T13:54:41.820Z,30.47
2023-07-09T13:57:30.766Z,30.35
2023-07-09T14:00:27.825Z,30.27
2023-07-09T14:03:20.678Z,30.28
2023-07-09T14:06:17.955Z,30.19
2023-07-09T14:09:07.579Z,30.12
2023-07-09T14:11:58.415Z,30.16
2023-07-09T14:15:01.438Z,30.27
2023-07-09T14:17:57.447Z,30.12
2023-07-09T14:20:46.872Z,29.99
2023-07-09T14:23:35.461Z,29.96
2023-07-09T14:26:24.039Z,29.90
2023-07-09T14:29:15.030Z,29.89
2023-07-09T14:32:04.173Z,29.83
2023-07-09T14:34:53.910Z,29.69
2023-07-09T14:37:43.180Z,29.73
2023-07-09T14:40:31.870Z,29.94
2023-07-09T14:43:21.544Z,29.91
2023-07-09T14:46:12.455Z,29.89
2023-07-09T14:49:11.295Z,29.78
2023-07-09T14:52:00.165Z,29.71
2023-07-09T14:54:49.817Z,29.68
2023-07-09T14:57:38.362Z,29.80
2023-07-09T15:00:27.017Z,29.72
2023-07-09T15:03:24.529Z,29.67
2023-07-09T15:06:15.274Z,29.65
2023-07-09T15:09:05.592Z,29.61
2023-07-09T15:11:59.852Z,29.64
2023-07-09T15:14:54.251Z,29.63
2023-07-09T15:17:42.971Z,29.56
2023-07-09T15:20:31.925Z,29.51
2023-07-09T15:23:23.144Z,29.43
2023-07-09T15:26:16.768Z,29.41
2023-07-09T15:29:08.005Z,29.33
2023-07-09T15:31:57.848Z,29.23
2023-07-09T15:34:46.432Z,29.15
2023-07-09T15:37:36.427Z,29.15
2023-07-09T15:40:30.042Z,29.13
2023-07-09T15:43:19.015Z,29.05
2023-07-09T15:46:16.415Z,29.00
2023-07-09T15:49:05.853Z,28.90
2023-07-09T15:51:55.343Z,28.79
2023-07-09T15:54:44.130Z,28.61
2023-07-09T15:57:41.538Z,28.46
2023-07-09T16:00:36.358Z,28.35
2023-07-09T16:03:27.324Z,28.26
2023-07-09T16:06:17.152Z,28.16
2023-07-09T16:09:06.106Z,28.04
2023-07-09T16:11:55.337Z,27.94
2023-07-09T16:14:48.040Z,27.84
2023-07-09T16:17:49.900Z,27.79
2023-07-09T16:20:46.459Z,27.76
2023-07-09T16:23:35.003Z,27.75
2023-07-09T16:26:28.505Z,27.72
2023-07-09T16:29:20.623Z,27.65
2023-07-09T16:32:09.935Z,27.60
2023-07-09T16:34:58.555Z,27.53
2023-07-09T16:37:48.840Z,27.45
2023-07-09T16:40:38.483Z,27.37
2023-07-09T16:43:28.616Z,27.32
2023-07-09T16:46:25.477Z,27.29
2023-07-09T16:49:31.963Z,27.23
2023-07-09T16:52:28.461Z,27.17
2023-07-09T16:55:21.471Z,27.12
2023-07-09T16:58:35.166Z,27.05
2023-07-09T17:01:23.718Z,26.96
2023-07-09T17:04:31.634Z,26.89
2023-07-09T17:07:20.307Z,26.82
2023-07-09T17:10:12.933Z,26.76
2023-07-09T17:13:03.416Z,26.70
2023-07-09T17:15:52.897Z,26.64
2023-07-09T17:18:41.490Z,26.58
2023-07-09T17:21:30.075Z,26.51
2023-07-09T17:24:28.430Z,26.47
2023-07-09T17:27:17.166Z,26.42
2023-07-09T17:30:15.583Z,26.37
2023-07-09T17:33:04.419Z,26.30
2023-07-09T17:35:55.617Z,26.22
2023-07-09T17:38:44.294Z,26.15
2023-07-09T17:41:33.043Z,26.07
2023-07-09T17:44:23.619Z,25.99
2023-07-09T17:47:19.102Z,25.91
2023-07-09T17:50:24.489Z,25.81
2023-07-09T17:53:19.906Z,25.73
2023-07-09T17:56:20.638Z,25.66
2023-07-09T17:59:14.428Z,25.55
2023-07-09T18:02:16.409Z,25.47
2023-07-09T18:05:22.619Z,25.38
2023-07-09T18:08:12.605Z,25.27
2023-07-09T18:11:01.280Z,25.18
2023-07-09T18:13:49.919Z,25.04
2023-07-09T18:16:38.502Z,24.92
2023-07-09T18:19:28.670Z,24.81
2023-07-09T18:22:22.336Z,24.71
2023-07-09T18:25:11.894Z,24.58
2023-07-09T18:28:03.031Z,24.47
2023-07-09T18:31:00.033Z,24.38
2023-07-09T18:33:59.975Z,24.26
2023-07-09T18:36:48.543Z,24.16
2023-07-09T18:39:37.121Z,24.04
2023-07-09T18:42:26.132Z,23.92
2023-07-09T18:45:17.452Z,23.79
2023-07-09T18:48:14.662Z,23.62
2023-07-09T18:51:03.829Z,23.43
2023-07-09T18:53:52.477Z,23.25
2023-07-09T18:56:41.963Z,23.08
2023-07-09T18:59:34.071Z,22.91
2023-07-09T19:02:25.014Z,22.76
2023-07-09T19:05:24.493Z,22.58
2023-07-09T19:08:26.100Z,22.41
2023-07-09T19:11:14.784Z,22.25
2023-07-09T19:14:04.709Z,22.11
2023-07-09T19:16:57.337Z,21.97
2023-07-09T19:19:47.709Z,21.82
2023-07-09T19:22:36.571Z,21.68
2023-07-09T19:25:33.011Z,21.52
2023-07-09T19:28:22.933Z,21.39
2023-07-09T19:31:11.663Z,21.27
2023-07-09T19:34:00.352Z,21.18
2023-07-09T19:36:55.632Z,21.09
2023-07-09T19:39:45.760Z,20.97
2023-07-09T19:42:34.385Z,20.87
2023-07-09T19:45:30.366Z,20.79
2023-07-09T19:48:27.013Z,20.71
2023-07-09T19:51:16.215Z,20.63
2023-07-09T19:54:15.713Z,20.54
2023-07-09T19:57:04.538Z,20.42
2023-07-09T19:59:53.030Z,20.31
2023-07-09T20:02:44.678Z,20.20
2023-07-09T20:05:33.260Z,20.09
2023-07-09T20:08:22.927Z,19.97
2023-07-09T20:11:15.515Z,19.89
2023-07-09T20:14:19.919Z,19.81
2023-07-09T20:17:09.567Z,19.70
2023-07-09T20:19:58.410Z,19.63
2023-07-09T20:22:48.674Z,19.56
2023-07-09T20:25:37.351Z,19.48
2023-07-09T20:28:29.323Z,19.40
2023-07-09T20:31:21.483Z,19.29
2023-07-09T20:34:22.903Z,19.22
2023-07-09T20:37:12.433Z,19.13
2023-07-09T20:40:01.051Z,19.04
2023-07-09T20:42:56.731Z,18.97
2023-07-09T20:45:45.982Z,18.89
2023-07-09T20:48:34.680Z,18.82
2023-07-09T20:51:23.233Z,18.73
2023-07-09T20:54:11.841Z,18.63
2023-07-09T20:57:06.959Z,18.55
2023-07-09T20:59:59.006Z,18.48
2023-07-09T21:02:49.947Z,18.39
2023-07-09T21:05:38.721Z,18.33
2023-07-09T21:08:29.111Z,18.26
2023-07-09T21:11:17.604Z,18.19
2023-07-09T21:14:11.803Z,18.11
2023-07-09T21:17:00.715Z,18.05
2023-07-09T21:19:51.555Z,17.97
2023-07-09T21:22:42.637Z,17.90
2023-07-09T21:25:31.266Z,17.83
2023-07-09T21:28:20.753Z,17.79
2023-07-09T21:31:18.858Z,17.75
2023-07-09T21:34:18.703Z,17.70
2023-07-09T21:37:19.609Z,17.65
2023-07-09T21:40:20.577Z,17.59
2023-07-09T21:43:09.141Z,17.49
2023-07-09T21:45:58.197Z,17.39
2023-07-09T21:48:47.058Z,17.30
2023-07-09T21:51:35.594Z,17.21
2023-07-09T21:54:58.760Z,17.13
2023-07-09T21:57:38.597Z,17.03
2023-07-09T22:00:28.724Z,16.95
2023-07-09T22:03:18.242Z,16.87
2023-07-09T22:06:10.622Z,16.81
2023-07-09T22:08:59.115Z,16.76
2023-07-09T22:11:50.419Z,16.71
2023-07-09T22:14:38.944Z,16.66
2023-07-09T22:17:27.682Z,16.62
2023-07-09T22:20:28.625Z,16.57
2023-07-09T22:23:21.100Z,16.49
2023-07-09T22:26:09.766Z,16.42
2023-07-09T22:29:00.030Z,16.36
2023-07-09T22:31:48.734Z,16.28
2023-07-09T22:34:37.373Z,16.21
2023-07-09T22:37:26.017Z,16.14
2023-07-09T22:40:14.898Z,16.08
2023-07-09T22:43:04.042Z,16.03
2023-07-09T22:45:53.092Z,15.99
2023-07-09T22:48:44.054Z,15.95
2023-07-09T22:51:34.496Z,15.90
2023-07-09T22:54:24.622Z,15.86
2023-07-09T22:57:13.168Z,15.81
2023-07-09T23:00:01.751Z,15.75
2023-07-09T23:02:50.828Z,15.69
2023-07-09T23:05:39.576Z,15.64
2023-07-09T23:08:29.897Z,15.58
2023-07-09T23:11:25.609Z,15.54
2023-07-09T23:14:26.186Z,15.50
2023-07-09T23:17:14.730Z,15.46
2023-07-09T23:20:05.478Z,15.40
2023-07-09T23:22:54.380Z,15.36
2023-07-09T23:25:44.191Z,15.30
2023-07-09T23:28:32.979Z,15.24
2023-07-09T23:31:27.391Z,15.18
2023-07-09T23:34:18.968Z,15.11
2023-07-09T23:37:07.482Z,15.06
2023-07-09T23:39:56.201Z,15.00
2023-07-09T23:42:47.696Z,14.95
2023-07-09T23:45:36.248Z,14.91
2023-07-09T23:48:27.633Z,14.87
2023-07-09T23:51:16.115Z,14.83
2023-07-09T23:54:05.376Z,14.78
2023-07-09T23:56:54.403Z,14.72
2023-07-09T23:59:46.475Z,14.67
